sensor_id;sensor_type;location;lat;lon;timestamp;pressure;altitude;pressure_sealevel;temperature;humidity
9129;BME280;4599;50.906;6.786;2023-05-08T00:00:56;24998.66;;;-142.83;nan
9129;BME280;4599;50.906;6.786;2023-05-08T00:05:18;23746.66;;;-142.83;nan
9129;BME280;4599;50.906;6.786;2023-05-08T00:09:40;43863.97;;;-142.83;nan
9129;BME280;4599;50.906;6.786;2023-05-08T00:14:02;39070.75;;;-142.83;nan
9129;BME280;4599;50.906;6.786;2023-05-08T00:18:25;24152.31;;;-142.83;nan
9129;BME280;4599;50.906;6.786;2023-05-08T00:22:47;25939.44;;;-142.83;nan
9129;BME280;4599;50.906;6.786;2023-05-08T00:27:09;37670.31;;;-142.83;nan
9129;BME280;4599;50.906;6.786;2023-05-08T00:31:31;37421.53;;;-142.83;nan
9129;BME280;4599;50.906;6.786;2023-05-08T00:35:59;23443.44;;;-142.83;nan
9129;BME280;4599;50.906;6.786;2023-05-08T00:40:21;32946.22;;;-142.83;nan
9129;BME280;4599;50.906;6.786;2023-05-08T00:44:42;31685.53;;;-142.83;nan
9129;BME280;4599;50.906;6.786;2023-05-08T00:49:05;31260.59;;;-142.83;nan
9129;BME280;4599;50.906;6.786;2023-05-08T00:53:29;30706.41;;;-142.83;nan
9129;BME280;4599;50.906;6.786;2023-05-08T00:57:51;24967.91;;;-142.83;nan
9129;BME280;4599;50.906;6.786;2023-05-08T01:02:13;22828.91;;;-142.83;nan
9129;BME280;4599;50.906;6.786;2023-05-08T01:06:35;24019.16;;;-142.83;nan
9129;BME280;4599;50.906;6.786;2023-05-08T01:11:04;23779.44;;;-142.83;nan
9129;BME280;4599;50.906;6.786;2023-05-08T01:15:31;22083.41;;;-142.83;nan
9129;BME280;4599;50.906;6.786;2023-05-08T01:20:08;21704.56;;;-142.83;nan
9129;BME280;4599;50.906;6.786;2023-05-08T01:24:46;20828.22;;;-142.83;nan
9129;BME280;4599;50.906;6.786;2023-05-08T01:29:39;19769.94;;;-142.83;nan
9129;BME280;4599;50.906;6.786;2023-05-08T01:34:09;21139.44;;;-142.83;nan
9129;BME280;4599;50.906;6.786;2023-05-08T01:38:38;24017.09;;;-142.83;nan
9129;BME280;4599;50.906;6.786;2023-05-08T01:43:14;28291.44;;;-142.83;nan
9129;BME280;4599;50.906;6.786;2023-05-08T01:47:38;23781.47;;;-142.83;nan
9129;BME280;4599;50.906;6.786;2023-05-08T01:52:05;25957.91;;;-142.83;nan
9129;BME280;4599;50.906;6.786;2023-05-08T01:56:28;22738.78;;;-142.83;nan
9129;BME280;4599;50.906;6.786;2023-05-08T02:00:51;20989.97;;;-142.83;nan
9129;BME280;4599;50.906;6.786;2023-05-08T02:05:14;24301.91;;;-142.83;nan
9129;BME280;4599;50.906;6.786;2023-05-08T02:09:40;26710.31;;;-142.83;nan
9129;BME280;4599;50.906;6.786;2023-05-08T02:14:03;22353.72;;;-142.83;nan
9129;BME280;4599;50.906;6.786;2023-05-08T02:18:29;21280.69;;;-142.83;nan
9129;BME280;4599;50.906;6.786;2023-05-08T02:22:52;25402.41;;;-142.83;nan
9129;BME280;4599;50.906;6.786;2023-05-08T02:27:16;24390.00;;;-142.83;nan
9129;BME280;4599;50.906;6.786;2023-05-08T02:31:39;27288.53;;;-142.83;nan
9129;BME280;4599;50.906;6.786;2023-05-08T02:36:03;28346.81;;;-142.83;nan
9129;BME280;4599;50.906;6.786;2023-05-08T02:40:26;23568.41;;;-142.83;nan
9129;BME280;4599;50.906;6.786;2023-05-08T02:44:50;26533.97;;;-142.83;nan
9129;BME280;4599;50.906;6.786;2023-05-08T02:49:22;23310.28;;;-142.83;nan
9129;BME280;4599;50.906;6.786;2023-05-08T02:53:50;27013.75;;;-142.83;nan
9129;BME280;4599;50.906;6.786;2023-05-08T02:58:18;31506.91;;;-142.83;nan
9129;BME280;4599;50.906;6.786;2023-05-08T03:02:45;27309.03;;;-142.83;nan
9129;BME280;4599;50.906;6.786;2023-05-08T03:07:09;23910.56;;;-142.83;nan
9129;BME280;4599;50.906;6.786;2023-05-08T03:11:38;22976.38;;;-142.83;nan
9129;BME280;4599;50.906;6.786;2023-05-08T03:16:03;21184.47;;;-142.83;nan
9129;BME280;4599;50.906;6.786;2023-05-08T03:20:31;21667.69;;;-142.83;nan
9129;BME280;4599;50.906;6.786;2023-05-08T03:24:55;23859.34;;;-142.83;nan
9129;BME280;4599;50.906;6.786;2023-05-08T03:29:20;26351.50;;;-142.83;nan
9129;BME280;4599;50.906;6.786;2023-05-08T03:33:44;28662.72;;;-142.83;nan
9129;BME280;4599;50.906;6.786;2023-05-08T03:38:08;26878.44;;;-142.83;nan
9129;BME280;4599;50.906;6.786;2023-05-08T03:42:31;29852.69;;;-142.83;nan
9129;BME280;4599;50.906;6.786;2023-05-08T03:46:54;44654.84;;;-142.83;nan
9129;BME280;4599;50.906;6.786;2023-05-08T03:51:17;41047.84;;;-142.83;nan
9129;BME280;4599;50.906;6.786;2023-05-08T03:55:40;46500.78;;;-142.83;nan
9129;BME280;4599;50.906;6.786;2023-05-08T04:00:05;61034.72;;;-142.83;nan
9129;BME280;4599;50.906;6.786;2023-05-08T04:04:37;59975.91;;;-142.83;nan
9129;BME280;4599;50.906;6.786;2023-05-08T04:09:06;55743.50;;;-142.83;nan
9129;BME280;4599;50.906;6.786;2023-05-08T04:13:31;71372.94;;;-142.83;nan
9129;BME280;4599;50.906;6.786;2023-05-08T04:17:56;73231.34;;;-142.83;nan
9129;BME280;4599;50.906;6.786;2023-05-08T04:22:21;68189.09;;;-142.83;nan
9129;BME280;4599;50.906;6.786;2023-05-08T04:26:46;63153.22;;;-142.83;nan
9129;BME280;4599;50.906;6.786;2023-05-08T04:31:10;63947.94;;;-142.83;nan
9129;BME280;4599;50.906;6.786;2023-05-08T04:35:34;60505.28;;;-142.83;nan
9129;BME280;4599;50.906;6.786;2023-05-08T04:39:56;63947.94;;;-142.83;nan
9129;BME280;4599;50.906;6.786;2023-05-08T04:44:18;47292.16;;;-142.83;nan
9129;BME280;4599;50.906;6.786;2023-05-08T04:48:41;29003.25;;;-142.83;nan
9129;BME280;4599;50.906;6.786;2023-05-08T04:53:03;38221.38;;;-142.83;nan
9129;BME280;4599;50.906;6.786;2023-05-08T04:57:25;43073.28;;;-142.83;nan
9129;BME280;4599;50.906;6.786;2023-05-08T05:01:47;60505.28;;;-142.83;nan
9129;BME280;4599;50.906;6.786;2023-05-08T05:06:10;54421.78;;;-142.83;nan
9129;BME280;4599;50.906;6.786;2023-05-08T05:10:32;47292.16;;;-142.83;nan
9129;BME280;4599;50.906;6.786;2023-05-08T05:14:54;28599.13;;;-142.83;nan
9129;BME280;4599;50.906;6.786;2023-05-08T05:19:16;20760.69;;;-142.83;nan
9129;BME280;4599;50.906;6.786;2023-05-08T05:23:39;20089.25;;;-142.83;nan
9129;BME280;4599;50.906;6.786;2023-05-08T05:28:00;21424.03;;;-142.83;nan
9129;BME280;4599;50.906;6.786;2023-05-08T05:32:23;19778.13;;;-142.83;nan
9129;BME280;4599;50.906;6.786;2023-05-08T05:36:44;19278.78;;;-142.83;nan
9129;BME280;4599;50.906;6.786;2023-05-08T05:41:08;23625.78;;;-142.83;nan
9129;BME280;4599;50.906;6.786;2023-05-08T05:45:29;23867.53;;;-142.83;nan
9129;BME280;4599;50.906;6.786;2023-05-08T05:49:53;19704.47;;;-142.83;nan
9129;BME280;4599;50.906;6.786;2023-05-08T05:54:15;20142.47;;;-142.83;nan
9129;BME280;4599;50.906;6.786;2023-05-08T05:58:39;20328.75;;;-142.83;nan
9129;BME280;4599;50.906;6.786;2023-05-08T06:03:00;21168.09;;;-142.83;nan
9129;BME280;4599;50.906;6.786;2023-05-08T06:07:22;19391.34;;;-142.83;nan
9129;BME280;4599;50.906;6.786;2023-05-08T06:11:44;19383.16;;;-142.83;nan
9129;BME280;4599;50.906;6.786;2023-05-08T06:16:08;18902.25;;;-142.83;nan
9129;BME280;4599;50.906;6.786;2023-05-08T06:20:29;19188.75;;;-142.83;nan
9129;BME280;4599;50.906;6.786;2023-05-08T06:24:51;18660.81;;;-142.83;nan
9129;BME280;4599;50.906;6.786;2023-05-08T06:29:13;18300.72;;;-142.83;nan
9129;BME280;4599;50.906;6.786;2023-05-08T06:33:36;18063.38;;;-142.83;nan
9129;BME280;4599;50.906;6.786;2023-05-08T06:37:58;18036.78;;;-142.83;nan
9129;BME280;4599;50.906;6.786;2023-05-08T06:42:20;18022.47;;;-142.83;nan
9129;BME280;4599;50.906;6.786;2023-05-08T06:46:42;18366.19;;;-142.83;nan
9129;BME280;4599;50.906;6.786;2023-05-08T06:51:05;19475.25;;;-142.83;nan
9129;BME280;4599;50.906;6.786;2023-05-08T06:55:27;19557.09;;;-142.83;nan
9129;BME280;4599;50.906;6.786;2023-05-08T06:59:48;19753.56;;;-142.83;nan
9129;BME280;4599;50.906;6.786;2023-05-08T07:04:10;19673.75;;;-142.83;nan
9129;BME280;4599;50.906;6.786;2023-05-08T07:08:33;19776.09;;;-142.83;nan
9129;BME280;4599;50.906;6.786;2023-05-08T07:12:55;20068.78;;;-142.83;nan
9129;BME280;4599;50.906;6.786;2023-05-08T07:17:17;19630.78;;;-142.83;nan
9129;BME280;4599;50.906;6.786;2023-05-08T07:21:39;19344.25;;;-142.83;nan
9129;BME280;4599;50.906;6.786;2023-05-08T07:26:02;18902.25;;;-142.83;nan
9129;BME280;4599;50.906;6.786;2023-05-08T07:30:24;18679.22;;;-142.83;nan
9129;BME280;4599;50.906;6.786;2023-05-08T07:34:46;18759.03;;;-142.83;nan
9129;BME280;4599;50.906;6.786;2023-05-08T07:39:08;18914.53;;;-142.83;nan
9129;BME280;4599;50.906;6.786;2023-05-08T07:43:31;19035.25;;;-142.83;nan
9129;BME280;4599;50.906;6.786;2023-05-08T07:47:54;18943.19;;;-142.83;nan
9129;BME280;4599;50.906;6.786;2023-05-08T07:52:17;18906.34;;;-142.83;nan
9129;BME280;4599;50.906;6.786;2023-05-08T07:56:38;18791.75;;;-142.83;nan
9129;BME280;4599;50.906;6.786;2023-05-08T08:01:02;18652.63;;;-142.83;nan
9129;BME280;4599;50.906;6.786;2023-05-08T08:05:24;18689.44;;;-142.83;nan
9129;BME280;4599;50.906;6.786;2023-05-08T08:09:45;18783.56;;;-142.83;nan
9129;BME280;4599;50.906;6.786;2023-05-08T08:14:07;18889.97;;;-142.83;nan
9129;BME280;4599;50.906;6.786;2023-05-08T08:18:32;18965.69;;;-142.83;nan
9129;BME280;4599;50.906;6.786;2023-05-08T08:22:54;18947.28;;;-142.83;nan
9129;BME280;4599;50.906;6.786;2023-05-08T08:27:16;18881.78;;;-142.83;nan
9129;BME280;4599;50.906;6.786;2023-05-08T08:31:38;19471.16;;;-142.83;nan
9129;BME280;4599;50.906;6.786;2023-05-08T08:36:01;19168.28;;;-142.83;nan
9129;BME280;4599;50.906;6.786;2023-05-08T08:40:24;18771.28;;;-142.83;nan
9129;BME280;4599;50.906;6.786;2023-05-08T08:44:45;18683.31;;;-142.83;nan
9129;BME280;4599;50.906;6.786;2023-05-08T08:49:08;18597.38;;;-142.83;nan
9129;BME280;4599;50.906;6.786;2023-05-08T08:53:34;18556.47;;;-142.83;nan
9129;BME280;4599;50.906;6.786;2023-05-08T08:58:03;18705.81;;;-142.83;nan
9129;BME280;4599;50.906;6.786;2023-05-08T09:02:28;18714.00;;;-142.83;nan
9129;BME280;4599;50.906;6.786;2023-05-08T09:06:52;18509.41;;;-142.83;nan
9129;BME280;4599;50.906;6.786;2023-05-08T09:11:15;18472.56;;;-142.83;nan
9129;BME280;4599;50.906;6.786;2023-05-08T09:15:37;18468.47;;;-142.83;nan
9129;BME280;4599;50.906;6.786;2023-05-08T09:19:59;18378.44;;;-142.83;nan
9129;BME280;4599;50.906;6.786;2023-05-08T09:24:21;18403.00;;;-142.83;nan
9129;BME280;4599;50.906;6.786;2023-05-08T09:28:44;18358.00;;;-142.83;nan
9129;BME280;4599;50.906;6.786;2023-05-08T09:33:06;18284.34;;;-142.83;nan
9129;BME280;4599;50.906;6.786;2023-05-08T09:37:28;18272.06;;;-142.83;nan
9129;BME280;4599;50.906;6.786;2023-05-08T09:41:56;18190.22;;;-142.83;nan
9129;BME280;4599;50.906;6.786;2023-05-08T09:46:24;18132.94;;;-142.83;nan
9129;BME280;4599;50.906;6.786;2023-05-08T09:51:04;18059.28;;;-142.83;nan
9129;BME280;4599;50.906;6.786;2023-05-08T09:55:26;18014.28;;;-142.83;nan
9129;BME280;4599;50.906;6.786;2023-05-08T09:59:48;18036.78;;;-142.83;nan
9129;BME280;4599;50.906;6.786;2023-05-08T10:04:11;18040.88;;;-142.83;nan
9129;BME280;4599;50.906;6.786;2023-05-08T10:08:33;18100.22;;;-142.83;nan
9129;BME280;4599;50.906;6.786;2023-05-08T10:12:56;18055.22;;;-142.83;nan
9129;BME280;4599;50.906;6.786;2023-05-08T10:17:24;18112.50;;;-142.83;nan
9129;BME280;4599;50.906;6.786;2023-05-08T10:21:49;18089.97;;;-142.83;nan
9129;BME280;4599;50.906;6.786;2023-05-08T10:26:13;18120.66;;;-142.83;nan
9129;BME280;4599;50.906;6.786;2023-05-08T10:30:38;18182.03;;;-142.83;nan
9129;BME280;4599;50.906;6.786;2023-05-08T10:35:05;18247.50;;;-142.83;nan
9129;BME280;4599;50.906;6.786;2023-05-08T10:39:30;18180.00;;;-142.83;nan
9129;BME280;4599;50.906;6.786;2023-05-08T10:43:54;18186.13;;;-142.83;nan
9129;BME280;4599;50.906;6.786;2023-05-08T10:48:21;18188.19;;;-142.83;nan
9129;BME280;4599;50.906;6.786;2023-05-08T10:52:50;18202.50;;;-142.83;nan
9129;BME280;4599;50.906;6.786;2023-05-08T10:57:15;18132.94;;;-142.83;nan
9129;BME280;4599;50.906;6.786;2023-05-08T11:01:37;18180.00;;;-142.83;nan
9129;BME280;4599;50.906;6.786;2023-05-08T11:06:00;18188.19;;;-142.83;nan
9129;BME280;4599;50.906;6.786;2023-05-08T11:10:28;18206.59;;;-142.83;nan
9129;BME280;4599;50.906;6.786;2023-05-08T11:14:59;18177.97;;;-142.83;nan
9129;BME280;4599;50.906;6.786;2023-05-08T11:19:23;18192.28;;;-142.83;nan
9129;BME280;4599;50.906;6.786;2023-05-08T11:23:55;18255.69;;;-142.83;nan
9129;BME280;4599;50.906;6.786;2023-05-08T11:28:17;18364.13;;;-142.83;nan
9129;BME280;4599;50.906;6.786;2023-05-08T11:33:11;18464.38;;;-142.83;nan
9129;BME280;4599;50.906;6.786;2023-05-08T11:37:33;18693.53;;;-142.83;nan
9129;BME280;4599;50.906;6.786;2023-05-08T11:42:34;18640.34;;;-142.83;nan
9129;BME280;4599;50.906;6.786;2023-05-08T11:46:56;18787.66;;;-142.83;nan
9129;BME280;4599;50.906;6.786;2023-05-08T11:51:20;18681.25;;;-142.83;nan
9129;BME280;4599;50.906;6.786;2023-05-08T11:55:42;18775.38;;;-142.83;nan
9129;BME280;4599;50.906;6.786;2023-05-08T12:00:09;18550.31;;;-142.83;nan
9129;BME280;4599;50.906;6.786;2023-05-08T12:04:42;18497.13;;;-142.83;nan
9129;BME280;4599;50.906;6.786;2023-05-08T12:09:10;18458.25;;;-142.83;nan
9129;BME280;4599;50.906;6.786;2023-05-08T12:13:32;18628.06;;;-142.83;nan
9129;BME280;4599;50.906;6.786;2023-05-08T12:18:00;18658.75;;;-142.83;nan
9129;BME280;4599;50.906;6.786;2023-05-08T12:22:21;18513.50;;;-142.83;nan
9129;BME280;4599;50.906;6.786;2023-05-08T12:26:45;18517.59;;;-142.83;nan
9129;BME280;4599;50.906;6.786;2023-05-08T12:31:07;18603.50;;;-142.83;nan
9129;BME280;4599;50.906;6.786;2023-05-08T12:35:29;18652.63;;;-142.83;nan
9129;BME280;4599;50.906;6.786;2023-05-08T12:39:51;18769.25;;;-142.83;nan
9129;BME280;4599;50.906;6.786;2023-05-08T12:44:18;18949.31;;;-142.83;nan
9129;BME280;4599;50.906;6.786;2023-05-08T12:48:40;18752.88;;;-142.83;nan
9129;BME280;4599;50.906;6.786;2023-05-08T12:53:02;18971.81;;;-142.83;nan
9129;BME280;4599;50.906;6.786;2023-05-08T12:57:24;19000.47;;;-142.83;nan
9129;BME280;4599;50.906;6.786;2023-05-08T13:01:50;19215.34;;;-142.83;nan
9129;BME280;4599;50.906;6.786;2023-05-08T13:06:18;19192.81;;;-142.83;nan
9129;BME280;4599;50.906;6.786;2023-05-08T13:10:48;19352.44;;;-142.83;nan
9129;BME280;4599;50.906;6.786;2023-05-08T13:15:10;18935.00;;;-142.83;nan
9129;BME280;4599;50.906;6.786;2023-05-08T13:19:34;19196.91;;;-142.83;nan
9129;BME280;4599;50.906;6.786;2023-05-08T13:23:56;19258.31;;;-142.83;nan
9129;BME280;4599;50.906;6.786;2023-05-08T13:28:18;19068.00;;;-142.83;nan
9129;BME280;4599;50.906;6.786;2023-05-08T13:32:39;19166.22;;;-142.83;nan
9129;BME280;4599;50.906;6.786;2023-05-08T13:37:03;19088.47;;;-142.83;nan
9129;BME280;4599;50.906;6.786;2023-05-08T13:41:25;19110.97;;;-142.83;nan
9129;BME280;4599;50.906;6.786;2023-05-08T13:45:47;19254.22;;;-142.83;nan
9129;BME280;4599;50.906;6.786;2023-05-08T13:50:10;19233.75;;;-142.83;nan
9129;BME280;4599;50.906;6.786;2023-05-08T13:54:33;19086.41;;;-142.83;nan
9129;BME280;4599;50.906;6.786;2023-05-08T13:58:55;18937.03;;;-142.83;nan
9129;BME280;4599;50.906;6.786;2023-05-08T14:03:17;18908.38;;;-142.83;nan
9129;BME280;4599;50.906;6.786;2023-05-08T14:07:39;18881.78;;;-142.83;nan
9129;BME280;4599;50.906;6.786;2023-05-08T14:12:03;19029.13;;;-142.83;nan
9129;BME280;4599;50.906;6.786;2023-05-08T14:16:24;18879.75;;;-142.83;nan
9129;BME280;4599;50.906;6.786;2023-05-08T14:20:46;18869.50;;;-142.83;nan
9129;BME280;4599;50.906;6.786;2023-05-08T14:25:17;18935.00;;;-142.83;nan
9129;BME280;4599;50.906;6.786;2023-05-08T14:29:40;18996.38;;;-142.83;nan
9129;BME280;4599;50.906;6.786;2023-05-08T14:34:02;18812.22;;;-142.83;nan
9129;BME280;4599;50.906;6.786;2023-05-08T14:38:24;18697.63;;;-142.83;nan
9129;BME280;4599;50.906;6.786;2023-05-08T14:42:46;18632.16;;;-142.83;nan
9129;BME280;4599;50.906;6.786;2023-05-08T14:47:09;18556.47;;;-142.83;nan
9129;BME280;4599;50.906;6.786;2023-05-08T14:51:31;18703.78;;;-142.83;nan
9129;BME280;4599;50.906;6.786;2023-05-08T14:55:53;18585.09;;;-142.83;nan
9129;BME280;4599;50.906;6.786;2023-05-08T15:00:16;18493.03;;;-142.83;nan
9129;BME280;4599;50.906;6.786;2023-05-08T15:04:41;18466.44;;;-142.83;nan
9129;BME280;4599;50.906;6.786;2023-05-08T15:09:03;18419.38;;;-142.83;nan
9129;BME280;4599;50.906;6.786;2023-05-08T15:13:24;18425.50;;;-142.83;nan
9129;BME280;4599;50.906;6.786;2023-05-08T15:17:46;18413.22;;;-142.83;nan
9129;BME280;4599;50.906;6.786;2023-05-08T15:22:10;18386.63;;;-142.83;nan
9129;BME280;4599;50.906;6.786;2023-05-08T15:26:32;18386.63;;;-142.83;nan
9129;BME280;4599;50.906;6.786;2023-05-08T15:30:53;18415.28;;;-142.83;nan
9129;BME280;4599;50.906;6.786;2023-05-08T15:35:15;18437.78;;;-142.83;nan
9129;BME280;4599;50.906;6.786;2023-05-08T15:39:38;18460.28;;;-142.83;nan
9129;BME280;4599;50.906;6.786;2023-05-08T15:44:00;18443.94;;;-142.83;nan
9129;BME280;4599;50.906;6.786;2023-05-08T15:48:22;18382.53;;;-142.83;nan
9129;BME280;4599;50.906;6.786;2023-05-08T15:52:44;18403.00;;;-142.83;nan
9129;BME280;4599;50.906;6.786;2023-05-08T15:57:07;18405.06;;;-142.83;nan
9129;BME280;4599;50.906;6.786;2023-05-08T16:01:29;18360.03;;;-142.83;nan
9129;BME280;4599;50.906;6.786;2023-05-08T16:05:51;18394.81;;;-142.83;nan
9129;BME280;4599;50.906;6.786;2023-05-08T16:10:13;18376.41;;;-142.83;nan
9129;BME280;4599;50.906;6.786;2023-05-08T16:14:36;18392.78;;;-142.83;nan
9129;BME280;4599;50.906;6.786;2023-05-08T16:18:58;18460.28;;;-142.83;nan
9129;BME280;4599;50.906;6.786;2023-05-08T16:23:20;18433.69;;;-142.83;nan
9129;BME280;4599;50.906;6.786;2023-05-08T16:27:42;18390.72;;;-142.83;nan
9129;BME280;4599;50.906;6.786;2023-05-08T16:32:05;18411.19;;;-142.83;nan
9129;BME280;4599;50.906;6.786;2023-05-08T16:36:27;18398.91;;;-142.83;nan
9129;BME280;4599;50.906;6.786;2023-05-08T16:40:49;18413.22;;;-142.83;nan
9129;BME280;4599;50.906;6.786;2023-05-08T16:45:11;18380.50;;;-142.83;nan
9129;BME280;4599;50.906;6.786;2023-05-08T16:49:34;18343.66;;;-142.83;nan
9129;BME280;4599;50.906;6.786;2023-05-08T16:53:57;18378.44;;;-142.83;nan
9129;BME280;4599;50.906;6.786;2023-05-08T17:01:31;18398.91;;;-142.83;58.99
9129;BME280;4599;50.906;6.786;2023-05-08T17:05:53;18419.38;;;-142.83;58.38
9129;BME280;4599;50.906;6.786;2023-05-08T17:10:15;18464.38;;;-142.83;57.74
9129;BME280;4599;50.906;6.786;2023-05-08T17:14:37;18433.69;;;-142.83;58.28
9129;BME280;4599;50.906;6.786;2023-05-08T17:19:00;18415.28;;;-142.83;58.39
9129;BME280;4599;50.906;6.786;2023-05-08T17:23:22;18427.56;;;-142.83;58.52
9129;BME280;4599;50.906;6.786;2023-05-08T17:27:44;18394.81;;;-142.83;58.57
9129;BME280;4599;50.906;6.786;2023-05-08T17:32:06;18370.28;;;-142.83;58.16
9129;BME280;4599;50.906;6.786;2023-05-08T17:36:29;18382.53;;;-142.83;57.97
9129;BME280;4599;50.906;6.786;2023-05-08T17:40:51;18370.28;;;-142.83;58.09
9129;BME280;4599;50.906;6.786;2023-05-08T17:45:13;18317.06;;;-142.83;58.83
9129;BME280;4599;50.906;6.786;2023-05-08T17:49:35;18312.97;;;-142.83;58.93
9129;BME280;4599;50.906;6.786;2023-05-08T17:53:58;18308.88;;;-142.83;59.00
9129;BME280;4599;50.906;6.786;2023-05-08T17:58:20;18296.63;;;-142.83;59.27
9129;BME280;4599;50.906;6.786;2023-05-08T18:02:41;18261.84;;;-142.83;59.96
9129;BME280;4599;50.906;6.786;2023-05-08T18:07:03;18284.34;;;-142.83;60.03
9129;BME280;4599;50.906;6.786;2023-05-08T18:11:26;18265.94;;;-142.83;59.67
9129;BME280;4599;50.906;6.786;2023-05-08T18:15:48;18255.69;;;-142.83;60.71
9129;BME280;4599;50.906;6.786;2023-05-08T18:20:11;18222.97;;;-142.83;60.59
9129;BME280;4599;50.906;6.786;2023-05-08T18:24:33;18243.41;;;-142.83;60.60
9129;BME280;4599;50.906;6.786;2023-05-08T18:28:56;18227.06;;;-142.83;61.06
9129;BME280;4599;50.906;6.786;2023-05-08T18:33:18;18180.00;;;-142.83;61.46
9129;BME280;4599;50.906;6.786;2023-05-08T18:37:40;18182.03;;;-142.83;62.44
9129;BME280;4599;50.906;6.786;2023-05-08T18:42:06;18149.31;;;-142.83;63.32
9129;BME280;4599;50.906;6.786;2023-05-08T18:46:29;18137.03;;;-142.83;63.23
9129;BME280;4599;50.906;6.786;2023-05-08T18:50:51;18120.66;;;-142.83;62.98
9129;BME280;4599;50.906;6.786;2023-05-08T18:55:13;18106.34;;;-142.83;63.51
9129;BME280;4599;50.906;6.786;2023-05-08T18:59:35;18081.81;;;-142.83;63.99
9129;BME280;4599;50.906;6.786;2023-05-08T19:03:58;18102.25;;;-142.83;64.20
9129;BME280;4599;50.906;6.786;2023-05-08T19:08:20;18071.56;;;-142.83;64.70
9129;BME280;4599;50.906;6.786;2023-05-08T19:12:42;18053.16;;;-142.83;65.55
9129;BME280;4599;50.906;6.786;2023-05-08T19:17:04;18026.56;;;-142.83;66.10
9129;BME280;4599;50.906;6.786;2023-05-08T19:21:27;18034.75;;;-142.83;66.76
9129;BME280;4599;50.906;6.786;2023-05-08T19:25:48;18049.06;;;-142.83;66.31
9129;BME280;4599;50.906;6.786;2023-05-08T19:30:11;18032.69;;;-142.83;66.57
9129;BME280;4599;50.906;6.786;2023-05-08T19:34:33;18010.19;;;-142.83;67.58
9129;BME280;4599;50.906;6.786;2023-05-08T19:38:56;17997.94;;;-142.83;70.11
9129;BME280;4599;50.906;6.786;2023-05-08T19:43:18;17971.31;;;-142.83;69.53
9129;BME280;4599;50.906;6.786;2023-05-08T19:47:40;17981.56;;;-142.83;69.07
9129;BME280;4599;50.906;6.786;2023-05-08T19:52:02;17971.31;;;-142.83;69.38
9129;BME280;4599;50.906;6.786;2023-05-08T19:56:25;17997.94;;;-142.83;69.97
9129;BME280;4599;50.906;6.786;2023-05-08T20:00:46;18010.19;;;-142.83;69.03
9129;BME280;4599;50.906;6.786;2023-05-08T20:05:11;17963.16;;;-142.83;70.34
9129;BME280;4599;50.906;6.786;2023-05-08T20:09:36;18022.47;;;-142.83;70.12
9129;BME280;4599;50.906;6.786;2023-05-08T20:13:59;17952.91;;;-142.83;70.39
9129;BME280;4599;50.906;6.786;2023-05-08T20:18:21;17957.00;;;-142.83;70.49
9129;BME280;4599;50.906;6.786;2023-05-08T20:22:43;17969.28;;;-142.83;70.68
9129;BME280;4599;50.906;6.786;2023-05-08T20:27:05;17969.28;;;-142.83;70.95
9129;BME280;4599;50.906;6.786;2023-05-08T20:31:28;17948.81;;;-142.83;71.27
9129;BME280;4599;50.906;6.786;2023-05-08T20:35:51;17948.81;;;-142.83;71.49
9129;BME280;4599;50.906;6.786;2023-05-08T20:40:13;17932.47;;;-142.83;71.08
9129;BME280;4599;50.906;6.786;2023-05-08T20:44:36;17981.56;;;-142.83;71.27
9129;BME280;4599;50.906;6.786;2023-05-08T20:48:59;17954.97;;;-142.83;72.19
9129;BME280;4599;50.906;6.786;2023-05-08T20:53:21;17975.41;;;-142.83;72.37
9129;BME280;4599;50.906;6.786;2023-05-08T20:57:43;17944.72;;;-142.83;72.43
9129;BME280;4599;50.906;6.786;2023-05-08T21:02:04;17950.88;;;-142.83;72.53
9129;BME280;4599;50.906;6.786;2023-05-08T21:06:28;17920.19;;;-142.83;72.84
9129;BME280;4599;50.906;6.786;2023-05-08T21:10:50;17936.56;;;-142.83;72.73
9129;BME280;4599;50.906;6.786;2023-05-08T21:15:11;17893.59;;;-142.83;73.20
9129;BME280;4599;50.906;6.786;2023-05-08T21:19:33;17907.91;;;-142.83;74.09
9129;BME280;4599;50.906;6.786;2023-05-08T21:23:57;17901.78;;;-142.83;74.38
9129;BME280;4599;50.906;6.786;2023-05-08T21:28:18;17907.91;;;-142.83;74.10
9129;BME280;4599;50.906;6.786;2023-05-08T21:32:40;17920.19;;;-142.83;74.08
9129;BME280;4599;50.906;6.786;2023-05-08T21:37:02;17883.38;;;-142.83;74.32
9129;BME280;4599;50.906;6.786;2023-05-08T21:41:25;17895.63;;;-142.83;74.06
9129;BME280;4599;50.906;6.786;2023-05-08T21:45:47;17895.63;;;-142.83;74.24
9129;BME280;4599;50.906;6.786;2023-05-08T21:50:10;17912.00;;;-142.83;74.12
9129;BME280;4599;50.906;6.786;2023-05-08T21:54:31;17901.78;;;-142.83;75.65
9129;BME280;4599;50.906;6.786;2023-05-08T21:58:54;17903.81;;;-142.83;77.17
9129;BME280;4599;50.906;6.786;2023-05-08T22:03:16;17895.63;;;-142.83;78.12
9129;BME280;4599;50.906;6.786;2023-05-08T22:07:39;17869.03;;;-142.83;77.23
9129;BME280;4599;50.906;6.786;2023-05-08T22:12:01;17889.50;;;-142.83;76.19
9129;BME280;4599;50.906;6.786;2023-05-08T22:16:24;17928.38;;;-142.83;76.31
9129;BME280;4599;50.906;6.786;2023-05-08T22:20:46;17895.63;;;-142.83;76.02
9129;BME280;4599;50.906;6.786;2023-05-08T22:25:08;17860.84;;;-142.83;75.43
9129;BME280;4599;50.906;6.786;2023-05-08T22:29:30;17854.72;;;-142.83;75.30
9129;BME280;4599;50.906;6.786;2023-05-08T22:33:53;17907.91;;;-142.83;75.62
9129;BME280;4599;50.906;6.786;2023-05-08T22:38:15;17875.19;;;-142.83;75.35
9129;BME280;4599;50.906;6.786;2023-05-08T22:42:37;17897.69;;;-142.83;75.98
9129;BME280;4599;50.906;6.786;2023-05-08T22:46:59;17914.06;;;-142.83;75.34
9129;BME280;4599;50.906;6.786;2023-05-08T22:51:22;17901.78;;;-142.83;74.88
9129;BME280;4599;50.906;6.786;2023-05-08T22:55:44;17932.47;;;-142.83;74.66
9129;BME280;4599;50.906;6.786;2023-05-08T23:00:07;17912.00;;;-142.83;75.40
9129;BME280;4599;50.906;6.786;2023-05-08T23:04:29;17905.88;;;-142.83;75.11
9129;BME280;4599;50.906;6.786;2023-05-08T23:08:52;17879.28;;;-142.83;74.70
9129;BME280;4599;50.906;6.786;2023-05-08T23:13:14;17912.00;;;-142.83;76.07
9129;BME280;4599;50.906;6.786;2023-05-08T23:17:36;17914.06;;;-142.83;74.26
9129;BME280;4599;50.906;6.786;2023-05-08T23:21:58;17918.13;;;-142.83;74.81
9129;BME280;4599;50.906;6.786;2023-05-08T23:26:21;17901.78;;;-142.83;75.20
9129;BME280;4599;50.906;6.786;2023-05-08T23:30:43;17875.19;;;-142.83;74.54
9129;BME280;4599;50.906;6.786;2023-05-08T23:35:05;17903.81;;;-142.83;74.26
9129;BME280;4599;50.906;6.786;2023-05-08T23:39:27;17883.38;;;-142.83;74.52
9129;BME280;4599;50.906;6.786;2023-05-08T23:43:51;17899.72;;;-142.83;74.90